Time;durP1;ratioP1;P1;durP2;ratioP2;P2;SDS_P1;SDS_P2;PMS_P1;PMS_P2;Temp;Humidity;BMP_temperature;BMP_pressure;BME280_temperature;BME280_humidity;BME280_pressure;Samples;Min_cycle;Max_cycle;Signal;HPM_P1;HPM_P2
2023/06/11 00:05:41;;;;;;;1.30;0.98;;;;;;;;;;20818119;28;20237;-84
2023/06/11 00:15:43;;;;;;;3.45;1.30;;;;;;;;;;20837431;28;20735;-83
2023/06/11 00:25:44;;;;;;;2.30;1.30;;;;;;;;;;20829924;28;20275;-84
2023/06/11 00:35:46;;;;;;;1.80;1.10;;;;;;;;;;20857884;28;20284;-83
2023/06/11 00:45:51;;;;;;;1.65;1.00;;;;;;;;;;20831292;28;20233;-83
2023/06/11 00:55:53;;;;;;;2.03;1.20;;;;;;;;;;20880281;28;20239;-84
2023/06/11 01:06:02;;;;;;;2.95;1.08;;;;;;;;;;20814808;28;20287;-84
2023/06/11 01:16:15;;;;;;;1.60;1.40;;;;;;;;;;20842370;28;20808;-84
2023/06/11 01:26:25;;;;;;;3.17;1.48;;;;;;;;;;20836661;28;20298;-83
2023/06/11 01:36:29;;;;;;;2.05;1.35;;;;;;;;;;20819970;28;20236;-83
2023/06/11 01:46:32;;;;;;;1.70;1.25;;;;;;;;;;20823438;28;20241;-85
2023/06/11 01:56:34;;;;;;;2.25;1.50;;;;;;;;;;20840970;28;20313;-84
2023/06/11 02:06:37;;;;;;;2.47;1.42;;;;;;;;;;20838904;28;20298;-83
2023/06/11 02:16:39;;;;;;;1.50;1.10;;;;;;;;;;20829515;28;20241;-84
2023/06/11 02:26:40;;;;;;;3.03;1.27;;;;;;;;;;20867415;28;20590;-83
2023/06/11 02:36:42;;;;;;;1.73;1.20;;;;;;;;;;20837275;28;20254;-83
2023/06/11 02:46:47;;;;;;;2.13;1.17;;;;;;;;;;20827798;28;20280;-84
2023/06/11 02:56:48;;;;;;;2.03;1.25;;;;;;;;;;20879007;28;20229;-84
2023/06/11 03:06:50;;;;;;;1.77;1.25;;;;;;;;;;20851174;28;20255;-86
2023/06/11 03:16:52;;;;;;;3.13;1.48;;;;;;;;;;20814457;28;20274;-83
2023/06/11 03:26:54;;;;;;;3.20;1.30;;;;;;;;;;20811649;28;20620;-81
2023/06/11 03:36:56;;;;;;;1.50;1.10;;;;;;;;;;20838552;28;20241;-80
2023/06/11 03:46:58;;;;;;;3.13;2.17;;;;;;;;;;20797647;28;20216;-82
2023/06/11 03:57:00;;;;;;;2.88;1.17;;;;;;;;;;20795879;28;20784;-81
2023/06/11 04:07:02;;;;;;;3.63;1.55;;;;;;;;;;20815273;28;20209;-80
2023/06/11 04:17:04;;;;;;;2.85;1.70;;;;;;;;;;20808835;28;20293;-83
2023/06/11 04:27:06;;;;;;;2.10;1.52;;;;;;;;;;20804008;28;20233;-80
2023/06/11 04:37:09;;;;;;;4.35;2.20;;;;;;;;;;20778302;28;20236;-81
2023/06/11 04:47:12;;;;;;;4.95;1.88;;;;;;;;;;20807072;28;20525;-82
2023/06/11 04:57:14;;;;;;;3.13;2.10;;;;;;;;;;20793331;28;21036;-81
2023/06/11 05:07:17;;;;;;;4.13;1.80;;;;;;;;;;20807719;28;20227;-81
2023/06/11 05:17:19;;;;;;;2.70;2.00;;;;;;;;;;20784632;28;20314;-79
2023/06/11 05:27:28;;;;;;;3.28;2.20;;;;;;;;;;20801943;28;20223;-80
2023/06/11 05:37:30;;;;;;;3.55;2.05;;;;;;;;;;20806835;28;20291;-80
2023/06/11 05:47:34;;;;;;;3.72;2.05;;;25.00;99.90;;;;;;20804266;28;20247;-83
2023/06/11 05:57:36;;;;;;;2.70;1.85;;;;;;;;;;20799071;28;20295;-80
2023/06/11 06:07:38;;;;;;;2.45;1.60;;;;;;;;;;20782414;28;20241;-82
2023/06/11 06:17:41;;;;;;;2.33;1.60;;;;;;;;;;20779045;28;20769;-82
2023/06/11 06:27:44;;;;;;;1.70;1.30;;;;;;;;;;20801291;28;20764;-83
2023/06/11 06:37:46;;;;;;;1.33;1.00;;;;;;;;;;20816828;28;20370;-82
2023/06/11 06:47:49;;;;;;;1.70;1.20;;;;;;;;;;20827274;28;20224;-83
2023/06/11 06:57:51;;;;;;;1.73;1.30;;;;;;;;;;20832010;28;20239;-84
2023/06/11 07:07:53;;;;;;;1.58;1.05;;;;;;;;;;20800311;28;20240;-83
2023/06/11 07:17:55;;;;;;;1.70;1.20;;;;;;;;;;20826239;28;20262;-83
2023/06/11 07:27:59;;;;;;;3.80;1.30;;;;;;;;;;20828041;28;20247;-83
2023/06/11 07:38:02;;;;;;;2.38;1.38;;;;;;;;;;20854319;28;20818;-81
2023/06/11 07:48:05;;;;;;;2.03;1.30;;;;;;;;;;20844160;28;20236;-82
2023/06/11 07:58:07;;;;;;;1.13;0.90;;;;;;;;;;20814801;28;20299;-82
2023/06/11 08:08:09;;;;;;;1.65;1.30;;;;;;;;;;20793127;28;20237;-83
2023/06/11 08:18:11;;;;;;;1.55;1.10;;;;;;;;;;20826427;28;20782;-82
2023/06/11 08:28:13;;;;;;;1.30;1.00;;;;;;;;;;20866650;28;20282;-83
2023/06/11 08:38:15;;;;;;;2.72;1.20;;;;;;;;;;20832985;28;20591;-84
2023/06/11 08:48:21;;;;;;;1.83;1.30;;;27.40;95.60;;;;;;20779301;28;20235;-84
2023/06/11 08:58:23;;;;;;;2.63;1.25;;;;;;;;;;20805362;28;20234;-85
2023/06/11 09:08:24;;;;;;;1.65;1.25;;;;;;;;;;20793079;28;20230;-85
2023/06/11 09:18:27;;;;;;;2.63;1.20;;;28.10;90.40;;;;;;20834775;28;20271;-84
2023/06/11 09:28:35;;;;;;;1.70;1.00;;;;;;;;;;20815693;28;20691;-84
2023/06/11 09:38:37;;;;;;;1.50;1.02;;;;;;;;;;20784045;28;20241;-83
2023/06/11 09:48:39;;;;;;;1.95;1.25;;;;;;;;;;20821459;28;20228;-84
2023/06/11 09:58:42;;;;;;;1.80;1.38;;;;;;;;;;20869621;28;20248;-83
2023/06/11 10:08:45;;;;;;;1.48;1.10;;;;;;;;;;20851195;28;20245;-84
2023/06/11 10:18:46;;;;;;;1.30;0.90;;;;;;;;;;20831270;28;20290;-83
2023/06/11 10:28:51;;;;;;;5.45;1.10;;;;;;;;;;20850248;28;20221;-83
2023/06/11 10:39:25;;;;;;;1.98;1.08;;;29.30;77.30;;;;;;20849245;28;20785;-84
2023/06/11 10:49:27;;;;;;;1.45;0.88;;;;;;;;;;20821410;28;20649;-84
2023/06/11 10:59:31;;;;;;;2.00;1.20;;;;;;;;;;20836013;28;20773;-84
2023/06/11 11:09:33;;;;;;;1.80;1.00;;;;;;;;;;20812055;28;20287;-84
2023/06/11 11:19:36;;;;;;;1.60;1.17;;;;;;;;;;20829781;28;20245;-84
2023/06/11 11:29:39;;;;;;;1.77;1.20;;;;;;;;;;20820720;28;20222;-84
2023/06/11 11:39:40;;;;;;;3.17;1.33;;;;;;;;;;20836009;28;20224;-85
2023/06/11 11:49:44;;;;;;;2.92;1.10;;;;;;;;;;20771300;28;20288;-84
2023/06/11 11:59:46;;;;;;;2.67;1.38;;;;;;;;;;20810316;28;20495;-84
2023/06/11 12:09:47;;;;;;;1.50;0.95;;;;;;;;;;20796676;28;20227;-85
2023/06/11 12:19:49;;;;;;;1.70;1.25;;;;;;;;;;20784089;28;20802;-87
2023/06/11 12:29:53;;;;;;;2.10;1.10;;;;;;;;;;20845272;28;20717;-84
2023/06/11 12:39:55;;;;;;;1.35;1.00;;;;;;;;;;20839366;28;20255;-84
2023/06/11 12:49:57;;;;;;;2.17;1.10;;;;;;;;;;20817530;28;20215;-85
2023/06/11 12:59:59;;;;;;;1.77;1.10;;;;;;;;;;20744144;28;20231;-85
2023/06/11 13:10:00;;;;;;;1.23;0.90;;;;;;;;;;20802046;28;20234;-85
2023/06/11 13:20:02;;;;;;;2.45;0.98;;;;;;;;;;20822008;28;20234;-86
2023/06/11 13:30:08;;;;;;;1.98;1.27;;;;;;;;;;20812697;28;20581;-85
2023/06/11 13:40:11;;;;;;;6.35;1.33;;;;;;;;;;20758159;28;20281;-84
2023/06/11 13:50:12;;;;;;;1.60;1.10;;;;;;;;;;20793132;28;20332;-84
2023/06/11 14:00:14;;;;;;;1.50;1.15;;;;;;;;;;20842323;28;20276;-85
2023/06/11 14:10:16;;;;;;;2.03;1.10;;;;;;;;;;20872953;28;20640;-85
2023/06/11 14:20:18;;;;;;;1.80;1.17;;;;;;;;;;20792851;28;20313;-85
2023/06/11 14:30:19;;;;;;;1.10;0.88;;;;;;;;;;20842876;28;20245;-84
2023/06/11 14:40:21;;;;;;;1.50;1.08;;;;;;;;;;20825060;28;20231;-84
2023/06/11 14:50:24;;;;;;;1.92;1.20;;;;;;;;;;20813267;28;20238;-84
2023/06/11 15:00:25;;;;;;;1.52;1.05;;;;;;;;;;20827803;28;20238;-85
2023/06/11 15:10:27;;;;;;;2.88;1.40;;;;;;;;;;20773824;28;20246;-86
2023/06/11 15:20:29;;;;;;;1.60;1.05;;;;;;;;;;20809966;28;20239;-85
2023/06/11 15:30:30;;;;;;;2.38;1.15;;;;;;;;;;20792578;28;20262;-85
2023/06/11 15:40:32;;;;;;;1.92;1.00;;;;;;;;;;20791235;28;20238;-86
2023/06/11 15:50:34;;;;;;;1.48;1.08;;;;;;;;;;20777375;28;20631;-85
2023/06/11 16:00:36;;;;;;;1.50;1.15;;;;;;;;;;20808979;28;20297;-85
2023/06/11 16:10:37;;;;;;;1.33;1.00;;;;;;;;;;20818891;28;20234;-84
2023/06/11 16:20:39;;;;;;;1.48;1.00;;;;;;;;;;20782424;28;20234;-86
2023/06/11 16:30:41;;;;;;;3.30;1.17;;;;;;;;;;20774672;28;20241;-85
2023/06/11 16:40:43;;;;;;;1.80;1.10;;;;;;;;;;20789958;28;20516;-86
2023/06/11 16:50:44;;;;;;;1.67;1.05;;;;;;;;;;20781753;28;20296;-85
2023/06/11 17:00:51;;;;;;;1.90;1.13;;;;;;;;;;20796590;28;20301;-86
2023/06/11 17:10:52;;;;;;;2.00;1.02;;;;;;;;;;20805553;28;20227;-86
2023/06/11 17:20:54;;;;;;;1.60;1.20;;;;;;;;;;20778967;28;20231;-85
2023/06/11 17:30:57;;;;;;;1.60;1.00;;;;;;;;;;20825201;28;20274;-86
2023/06/11 17:40:58;;;;;;;1.40;1.00;;;;;;;;;;20819564;28;20217;-85
2023/06/11 17:51:00;;;;;;;2.15;1.40;;;;;;;;;;20815809;28;20234;-86
2023/06/11 18:01:02;;;;;;;2.33;1.00;;;;;;;;;;20795646;28;20292;-86
2023/06/11 18:11:04;;;;;;;1.50;1.10;;;;;;;;;;20817283;28;20929;-86
2023/06/11 18:21:05;;;;;;;1.50;1.05;;;;;;;;;;20778128;28;20592;-85
2023/06/11 18:31:07;;;;;;;1.63;1.00;;;;;;;;;;20828589;28;20235;-85
2023/06/11 18:41:09;;;;;;;1.48;1.08;;;;;;;;;;20799044;28;20280;-85
2023/06/11 18:51:11;;;;;;;1.95;1.20;;;;;;;;;;20799083;28;20230;-84
2023/06/11 19:01:13;;;;;;;1.92;1.00;;;;;;;;;;20834043;28;20759;-84
2023/06/11 19:11:15;;;;;;;1.50;0.90;;;;;;;;;;20782263;28;20297;-84
2023/06/11 19:21:18;;;;;;;1.65;0.95;;;;;;;;;;20805035;28;20237;-84
2023/06/11 19:31:20;;;;;;;1.13;0.80;;;;;;;;;;20840402;28;20692;-86
2023/06/11 19:41:26;;;;;;;1.65;0.95;;;;;;;;;;20805636;28;20234;-88
2023/06/11 19:51:29;;;;;;;2.38;1.17;;;;;;;;;;20815795;28;20269;-88
2023/06/11 20:01:33;;;;;;;3.15;1.15;;;;;;;;;;20785002;28;20234;-88
2023/06/11 20:11:37;;;;;;;2.55;1.20;;;;;;;;;;20825756;28;20232;-86
2023/06/11 20:21:39;;;;;;;4.30;1.30;;;;;;;;;;20794745;28;20777;-85
2023/06/11 20:31:40;;;;;;;2.17;1.40;;;;;;;;;;20800899;28;20218;-87
2023/06/11 20:41:42;;;;;;;2.90;1.15;;;;;;;;;;20796968;28;20246;-85
2023/06/11 20:51:44;;;;;;;3.25;1.17;;;;;;;;;;20790325;28;20226;-86
2023/06/11 21:01:46;;;;;;;2.38;1.30;;;;;;;;;;20791743;28;20235;-84
2023/06/11 21:11:48;;;;;;;2.40;1.40;;;;;;;;;;20805526;28;20241;-84
2023/06/11 21:21:49;;;;;;;1.90;1.17;;;;;;;;;;20818991;28;21015;-85
2023/06/11 21:31:51;;;;;;;1.77;1.20;;;;;;;;;;20799168;28;20711;-85
2023/06/11 21:41:53;;;;;;;3.13;1.35;;;;;;;;;;20739555;28;20234;-86
2023/06/11 21:51:56;;;;;;;2.17;1.42;;;;;;;;;;20833524;28;20226;-85
2023/06/11 22:01:57;;;;;;;1.92;1.27;;;;;;;;;;20817147;28;20721;-86
2023/06/11 22:11:59;;;;;;;2.13;1.20;;;;;;;;;;20790717;28;20232;-86
2023/06/11 22:22:02;;;;;;;3.10;1.38;;;;;;;;;;20842127;28;20280;-86
2023/06/11 22:32:03;;;;;;;2.30;1.40;;;;;;;;;;20838123;28;20683;-85
2023/06/11 22:42:05;;;;;;;2.53;1.40;;;;;;;;;;20835885;28;20734;-85
2023/06/11 22:52:07;;;;;;;3.20;1.35;;;;;;;;;;20832186;28;20237;-85
2023/06/11 23:02:09;;;;;;;2.42;1.38;;;;;;;;;;20800649;28;20603;-85
2023/06/11 23:12:14;;;;;;;2.33;1.60;;;;;;;;;;20845907;28;20253;-85
2023/06/11 23:22:17;;;;;;;3.85;1.73;;;26.40;78.00;;;;;;20787798;28;20234;-84
2023/06/11 23:32:19;;;;;;;2.65;1.60;;;;;;;;;;20825948;28;20624;-85
2023/06/11 23:42:20;;;;;;;1.88;1.30;;;;;;;;;;20801939;28;20226;-85
2023/06/11 23:52:22;;;;;;;2.45;1.50;;;;;;;;;;20817534;28;20220;-85
